createdAt,value
2019-05-03T00:01:08.902Z,1.27
2019-05-03T00:03:38.363Z,1.57
2019-05-03T00:06:07.717Z,1.50
2019-05-03T00:08:38.071Z,1.40
2019-05-03T00:11:07.450Z,1.50
2019-05-03T00:13:37.079Z,1.25
2019-05-03T00:16:21.825Z,1.20
2019-05-03T00:18:52.704Z,1.30
2019-05-03T00:21:22.177Z,1.40
2019-05-03T00:23:52.304Z,1.55
2019-05-03T00:26:22.570Z,1.20
2019-05-03T00:28:52.154Z,1.32
2019-05-03T00:31:22.606Z,1.42
2019-05-03T00:33:53.710Z,1.20
2019-05-03T00:36:27.540Z,1.15
2019-05-03T00:38:58.451Z,1.20
2019-05-03T00:41:27.801Z,1.25
2019-05-03T00:43:57.070Z,1.20
2019-05-03T00:46:26.322Z,1.20
2019-05-03T00:48:55.565Z,1.10
2019-05-03T00:51:24.904Z,1.12
2019-05-03T00:53:54.224Z,1.20
2019-05-03T00:56:23.457Z,1.20
2019-05-03T00:58:54.485Z,1.25
2019-05-03T01:01:23.789Z,1.40
2019-05-03T01:03:53.067Z,1.10
2019-05-03T01:06:22.471Z,1.22
2019-05-03T01:08:52.368Z,1.17
2019-05-03T01:11:22.275Z,1.40
2019-05-03T01:13:53.035Z,1.52
2019-05-03T01:16:24.182Z,1.30
2019-05-03T01:18:53.723Z,1.70
2019-05-03T01:21:23.093Z,1.50
2019-05-03T01:23:52.760Z,1.50
2019-05-03T01:26:22.774Z,1.67
2019-05-03T01:28:52.386Z,1.60
2019-05-03T01:31:22.866Z,1.98
2019-05-03T01:33:52.406Z,2.00
2019-05-03T01:36:22.839Z,1.80
2019-05-03T01:38:52.864Z,1.90
2019-05-03T01:41:23.750Z,2.35
2019-05-03T01:43:53.001Z,1.80
2019-05-03T01:46:22.768Z,2.08
2019-05-03T01:49:03.139Z,1.75
2019-05-03T01:51:34.045Z,2.20
2019-05-03T01:54:03.735Z,1.90
2019-05-03T01:56:32.994Z,2.33
2019-05-03T01:59:02.290Z,2.40
2019-05-03T02:01:36.231Z,2.15
2019-05-03T02:04:12.937Z,1.80
2019-05-03T02:06:42.559Z,2.08
2019-05-03T02:09:12.276Z,2.10
2019-05-03T02:11:42.254Z,2.20
2019-05-03T02:14:12.420Z,1.92
2019-05-03T02:16:42.078Z,2.42
2019-05-03T02:19:12.641Z,2.20
2019-05-03T02:21:42.105Z,2.17
2019-05-03T02:24:11.921Z,1.90
2019-05-03T02:26:42.494Z,2.17
2019-05-03T02:29:12.614Z,2.58
2019-05-03T02:31:43.630Z,2.37
2019-05-03T02:34:13.134Z,2.25
2019-05-03T02:36:42.976Z,2.55
2019-05-03T02:39:14.146Z,2.05
2019-05-03T02:41:47.848Z,2.50
2019-05-03T02:44:16.512Z,2.50
2019-05-03T02:46:59.648Z,2.87
2019-05-03T02:49:35.294Z,2.80
2019-05-03T02:52:06.659Z,2.50
2019-05-03T02:54:35.327Z,2.67
2019-05-03T02:57:06.305Z,2.60
2019-05-03T02:59:35.818Z,2.80
2019-05-03T03:02:06.274Z,3.30
2019-05-03T03:04:35.903Z,2.92
2019-05-03T03:07:05.848Z,3.30
2019-05-03T03:09:36.058Z,2.92
2019-05-03T03:12:06.067Z,4.85
2019-05-03T03:14:36.371Z,2.92
2019-05-03T03:17:06.669Z,3.95
2019-05-03T03:19:36.293Z,3.65
2019-05-03T03:22:07.469Z,4.15
2019-05-03T03:24:37.190Z,3.87
2019-05-03T03:27:06.742Z,3.98
2019-05-03T03:29:37.187Z,4.28
2019-05-03T03:32:11.326Z,3.35
2019-05-03T03:35:42.809Z,4.17
2019-05-03T03:38:15.490Z,4.03
2019-05-03T03:40:45.349Z,4.45
2019-05-03T03:43:15.731Z,4.20
2019-05-03T03:45:45.620Z,4.37
2019-05-03T03:48:15.909Z,4.60
2019-05-03T03:50:45.702Z,4.83
2019-05-03T03:53:17.098Z,5.05
2019-05-03T03:55:47.605Z,5.03
2019-05-03T03:58:22.371Z,5.40
2019-05-03T04:00:48.643Z,4.75
2019-05-03T04:03:18.041Z,5.72
2019-05-03T04:05:47.417Z,5.20
2019-05-03T04:08:16.731Z,5.00
2019-05-03T04:10:46.496Z,5.35
2019-05-03T04:13:17.030Z,5.33
2019-05-03T04:15:48.042Z,5.55
2019-05-03T04:18:22.218Z,5.05
2019-05-03T04:20:51.611Z,4.72
2019-05-03T04:23:21.214Z,5.00
2019-05-03T04:29:26.591Z,5.33
2019-05-03T04:31:56.587Z,5.55
2019-05-03T04:34:26.417Z,5.67
2019-05-03T04:36:56.027Z,6.65
2019-05-03T04:39:25.692Z,6.70
2019-05-03T04:41:56.033Z,6.87
2019-05-03T04:44:26.076Z,6.62
2019-05-03T04:46:58.268Z,6.60
2019-05-03T04:49:26.465Z,7.67
2019-05-03T04:51:56.086Z,7.80
2019-05-03T04:54:37.459Z,7.95
2019-05-03T04:57:06.956Z,8.20
2019-05-03T04:59:36.404Z,8.73
2019-05-03T05:02:06.269Z,8.45
2019-05-03T05:04:35.941Z,8.95
2019-05-03T05:07:06.731Z,10.25
2019-05-03T05:09:36.096Z,8.70
2019-05-03T05:12:05.901Z,9.38
2019-05-03T05:14:35.536Z,11.25
2019-05-03T05:17:06.264Z,9.53
2019-05-03T05:19:41.169Z,10.35
2019-05-03T05:22:15.378Z,8.98
2019-05-03T05:24:44.962Z,9.40
2019-05-03T05:27:16.278Z,9.53
2019-05-03T05:29:45.554Z,10.55
2019-05-03T05:32:14.818Z,9.88
2019-05-03T05:34:45.926Z,10.00
2019-05-03T05:37:15.149Z,9.65
2019-05-03T05:39:44.799Z,11.05
2019-05-03T05:42:14.916Z,11.25
2019-05-03T05:44:45.415Z,10.95
2019-05-03T05:47:20.027Z,12.35
2019-05-03T05:49:50.946Z,12.03
2019-05-03T05:52:20.222Z,12.98
2019-05-03T05:54:55.320Z,13.03
2019-05-03T05:57:30.484Z,12.93
2019-05-03T06:09:36.983Z,13.75
2019-05-03T06:12:14.894Z,14.15
2019-05-03T06:14:48.945Z,13.95
2019-05-03T06:17:28.818Z,14.38
2019-05-03T06:20:00.098Z,14.07
2019-05-03T06:22:31.125Z,14.28
2019-05-03T06:25:02.499Z,13.80
2019-05-03T06:27:36.304Z,14.73
2019-05-03T06:30:10.474Z,15.08
2019-05-03T06:32:41.466Z,16.25
2019-05-03T06:35:11.175Z,14.23
2019-05-03T06:37:45.842Z,14.40
2019-05-03T06:40:15.417Z,15.10
2019-05-03T06:42:52.333Z,15.10
2019-05-03T06:45:16.063Z,15.58
2019-05-03T06:47:49.787Z,14.45
2019-05-03T06:50:19.636Z,15.78
2019-05-03T06:52:47.489Z,15.90
2019-05-03T06:55:18.288Z,17.40
2019-05-03T06:57:49.679Z,16.82
2019-05-03T07:00:34.949Z,16.30
2019-05-03T07:03:15.182Z,16.12
2019-05-03T07:08:49.047Z,16.65
2019-05-03T07:11:18.309Z,16.67
2019-05-03T07:13:55.018Z,16.93
2019-05-03T07:16:25.384Z,17.73
2019-05-03T07:18:58.123Z,20.72
2019-05-03T07:21:25.817Z,18.07
2019-05-03T07:23:55.261Z,16.23
2019-05-03T07:26:25.378Z,16.57
2019-05-03T07:28:54.953Z,17.10
2019-05-03T07:38:11.778Z,18.62
2019-05-03T07:40:41.478Z,23.83
2019-05-03T07:43:10.847Z,17.20
2019-05-03T07:45:40.353Z,17.00
2019-05-03T07:48:09.815Z,16.15
2019-05-03T07:50:39.639Z,16.57
2019-05-03T07:53:08.966Z,16.52
2019-05-03T07:55:52.221Z,16.95
2019-05-03T07:58:29.009Z,17.32
2019-05-03T08:01:06.295Z,16.93
2019-05-03T08:03:32.077Z,19.07
2019-05-03T08:06:01.329Z,17.50
2019-05-03T08:08:30.798Z,20.00
2019-05-03T08:11:00.448Z,19.95
2019-05-03T08:13:29.862Z,20.92
2019-05-03T08:15:59.153Z,22.32
2019-05-03T08:18:28.522Z,19.35
2019-05-03T08:20:57.817Z,18.90
2019-05-03T08:23:30.364Z,21.07
2019-05-03T08:25:58.938Z,19.90
2019-05-03T08:28:28.539Z,19.55
2019-05-03T08:31:15.772Z,20.43
2019-05-03T08:33:49.386Z,20.20
2019-05-03T08:36:18.753Z,19.10
2019-05-03T08:38:48.002Z,19.10
2019-05-03T08:41:24.926Z,21.90
2019-05-03T08:43:54.993Z,20.05
2019-05-03T08:46:25.368Z,19.98
2019-05-03T08:48:54.945Z,19.73
2019-05-03T08:51:25.112Z,19.40
2019-05-03T08:53:55.983Z,20.12
2019-05-03T08:56:25.461Z,18.95
2019-05-03T08:58:55.518Z,19.10
2019-05-03T09:01:25.290Z,19.37
2019-05-03T09:03:55.769Z,19.07
2019-05-03T09:06:25.426Z,18.50
2019-05-03T09:08:57.253Z,17.92
2019-05-03T09:11:33.590Z,19.60
2019-05-03T09:14:00.722Z,18.12
2019-05-03T09:16:30.434Z,17.07
2019-05-03T09:18:59.759Z,14.78
2019-05-03T09:21:29.057Z,9.03
2019-05-03T09:23:58.756Z,5.78
2019-05-03T09:26:29.519Z,6.08
2019-05-03T09:28:58.958Z,5.92
2019-05-03T09:31:29.728Z,3.50
2019-05-03T09:34:00.675Z,2.90
2019-05-03T09:36:29.998Z,2.42
2019-05-03T09:38:59.391Z,3.08
2019-05-03T09:41:29.119Z,3.17
2019-05-03T09:43:58.474Z,3.30
2019-05-03T09:46:27.754Z,2.98
2019-05-03T09:49:10.254Z,3.47
2019-05-03T09:51:28.902Z,5.62
2019-05-03T09:54:15.998Z,4.53
2019-05-03T09:56:58.737Z,5.10
2019-05-03T09:59:28.723Z,5.10
2019-05-03T10:01:58.673Z,5.90
2019-05-03T10:04:27.955Z,6.28
2019-05-03T10:06:57.223Z,7.03
2019-05-03T10:09:27.277Z,9.08
2019-05-03T10:11:56.663Z,9.40
2019-05-03T10:14:25.913Z,11.85
2019-05-03T10:17:17.009Z,12.98
2019-05-03T10:19:48.745Z,10.63
2019-05-03T10:22:21.151Z,11.12
2019-05-03T10:24:50.425Z,10.98
2019-05-03T10:27:19.713Z,12.45
2019-05-03T10:29:49.113Z,10.18
2019-05-03T10:32:32.442Z,10.30
2019-05-03T10:35:06.399Z,8.43
2019-05-03T10:37:36.027Z,9.70
2019-05-03T10:40:08.108Z,9.73
2019-05-03T10:42:38.801Z,9.38
2019-05-03T10:45:08.306Z,9.63
2019-05-03T10:47:37.804Z,11.22
2019-05-03T10:50:09.169Z,12.07
2019-05-03T10:52:44.909Z,7.72
2019-05-03T10:55:15.964Z,8.05
2019-05-03T10:57:49.553Z,7.15
2019-05-03T11:00:44.289Z,7.58
2019-05-03T11:02:56.277Z,7.42
2019-05-03T11:05:25.565Z,7.75
2019-05-03T11:07:55.615Z,8.58
2019-05-03T11:10:25.360Z,9.20
2019-05-03T11:12:56.080Z,7.62
2019-05-03T11:15:25.870Z,8.33
2019-05-03T11:17:55.582Z,8.50
2019-05-03T11:20:32.083Z,8.88
2019-05-03T11:23:02.507Z,10.35
2019-05-03T11:25:31.867Z,11.50
2019-05-03T11:28:04.760Z,9.33
2019-05-03T11:30:35.643Z,8.85
2019-05-03T11:33:15.242Z,10.58
2019-05-03T11:35:49.391Z,8.78
2019-05-03T11:38:34.800Z,8.00
2019-05-03T11:41:04.901Z,8.50
2019-05-03T11:43:35.019Z,7.47
2019-05-03T11:46:04.398Z,6.87
2019-05-03T11:48:34.889Z,6.30
2019-05-03T11:51:04.895Z,6.35
2019-05-03T11:53:35.613Z,6.20
2019-05-03T11:56:06.211Z,6.37
2019-05-03T11:58:35.478Z,5.67
2019-05-03T12:01:15.343Z,6.05
2019-05-03T12:03:41.637Z,6.97
2019-05-03T12:06:10.918Z,7.85
2019-05-03T12:08:40.562Z,8.18
2019-05-03T12:11:09.918Z,9.00
2019-05-03T12:13:39.322Z,11.03
2019-05-03T12:16:18.067Z,10.98
2019-05-03T12:18:51.970Z,10.30
2019-05-03T12:21:11.723Z,9.58
2019-05-03T12:23:42.267Z,7.90
2019-05-03T12:26:13.685Z,9.83
2019-05-03T12:28:44.817Z,10.48
2019-05-03T12:31:38.028Z,11.48
2019-05-03T12:34:06.178Z,11.43
2019-05-03T12:36:38.936Z,10.32
2019-05-03T12:39:22.867Z,11.97
2019-05-03T12:41:37.917Z,13.50
2019-05-03T12:44:07.174Z,13.98
2019-05-03T12:46:36.568Z,14.05
2019-05-03T12:49:05.958Z,15.95
2019-05-03T12:51:35.565Z,14.90
2019-05-03T12:54:05.007Z,16.60
2019-05-03T12:56:35.812Z,14.70
2019-05-03T12:59:07.016Z,15.85
2019-05-03T13:01:42.207Z,13.00
2019-05-03T13:04:15.157Z,12.53
2019-05-03T13:06:51.480Z,13.88
2019-05-03T13:11:54.775Z,14.05
2019-05-03T13:14:22.055Z,13.15
2019-05-03T13:16:52.417Z,10.88
2019-05-03T13:19:21.806Z,10.23
2019-05-03T13:21:51.998Z,10.58
2019-05-03T13:24:23.378Z,10.35
2019-05-03T13:26:52.399Z,10.18
2019-05-03T13:29:21.801Z,11.30
2019-05-03T13:31:59.199Z,11.05
2019-05-03T13:34:22.307Z,10.43
2019-05-03T13:36:51.718Z,11.90
2019-05-03T13:39:21.131Z,10.82
2019-05-03T13:41:50.491Z,10.55
2019-05-03T13:44:19.954Z,9.35
2019-05-03T13:46:50.378Z,9.43
2019-05-03T13:49:19.771Z,9.13
2019-05-03T13:51:49.049Z,7.42
2019-05-03T13:54:18.507Z,8.25
2019-05-03T13:56:47.834Z,7.80
2019-05-03T13:59:21.379Z,8.00
2019-05-03T14:01:48.082Z,7.87
2019-05-03T14:04:17.437Z,7.70
2019-05-03T14:06:47.097Z,8.00
2019-05-03T14:09:16.657Z,7.90
2019-05-03T14:11:46.119Z,8.25
2019-05-03T14:14:15.830Z,8.20
2019-05-03T14:16:45.313Z,7.17
2019-05-03T14:19:19.057Z,7.33
2019-05-03T14:21:59.612Z,8.35
2019-05-03T14:24:29.026Z,8.73
2019-05-03T14:26:59.278Z,8.23
2019-05-03T14:29:28.650Z,8.93
2019-05-03T14:31:58.075Z,9.28
2019-05-03T14:34:27.508Z,9.20
2019-05-03T14:36:56.791Z,9.88
2019-05-03T14:39:26.046Z,8.98
2019-05-03T14:41:55.624Z,9.45
2019-05-03T14:44:25.310Z,8.55
2019-05-03T14:46:58.794Z,8.85
2019-05-03T14:49:26.421Z,9.03
2019-05-03T14:51:56.699Z,9.03
2019-05-03T14:54:28.647Z,9.38
2019-05-03T14:57:08.517Z,9.68
2019-05-03T14:59:55.913Z,9.90
2019-05-03T15:02:40.907Z,9.18
2019-05-03T15:05:07.273Z,9.10
2019-05-03T15:07:36.679Z,9.35
2019-05-03T15:10:06.833Z,9.63
2019-05-03T15:12:36.170Z,9.90
2019-05-03T15:15:07.504Z,8.85
2019-05-03T15:17:37.004Z,9.48
2019-05-03T15:20:06.806Z,9.48
2019-05-03T15:22:36.272Z,9.23
2019-05-03T15:25:06.388Z,9.70
2019-05-03T15:27:35.698Z,9.93
2019-05-03T15:30:06.986Z,9.58
2019-05-03T15:32:36.709Z,9.50
2019-05-03T15:35:06.828Z,9.60
2019-05-03T15:37:37.085Z,10.55
2019-05-03T15:40:07.185Z,10.65
2019-05-03T15:42:38.173Z,10.63
2019-05-03T15:45:09.641Z,10.35
2019-05-03T15:47:43.615Z,10.25
2019-05-03T15:50:12.881Z,10.88
2019-05-03T15:52:44.381Z,9.95
2019-05-03T15:55:15.130Z,10.18
2019-05-03T15:57:44.774Z,9.75
2019-05-03T16:00:16.691Z,10.65
2019-05-03T16:02:46.021Z,11.05
2019-05-03T16:05:15.688Z,10.90
2019-05-03T16:07:45.151Z,10.75
2019-05-03T16:10:15.512Z,10.82
2019-05-03T16:12:45.038Z,10.63
2019-05-03T16:15:14.513Z,10.58
2019-05-03T16:17:44.931Z,10.70
2019-05-03T16:20:14.727Z,11.83
2019-05-03T16:22:45.007Z,10.63
2019-05-03T16:25:15.799Z,10.50
2019-05-03T16:27:47.304Z,10.60
2019-05-03T16:30:30.486Z,11.35
2019-05-03T16:33:01.462Z,11.15
2019-05-03T16:35:30.911Z,10.53
2019-05-03T16:38:00.389Z,10.23
2019-05-03T16:40:29.630Z,10.55
2019-05-03T16:42:59.272Z,11.85
2019-05-03T16:45:28.821Z,11.12
2019-05-03T16:47:58.214Z,11.15
2019-05-03T16:50:29.098Z,11.08
2019-05-03T16:52:58.385Z,10.95
2019-05-03T16:55:27.966Z,11.43
2019-05-03T16:57:57.310Z,10.78
2019-05-03T17:00:27.338Z,11.43
2019-05-03T17:02:57.026Z,10.75
2019-05-03T17:05:34.442Z,10.75
2019-05-03T17:08:17.696Z,11.70
2019-05-03T17:10:52.107Z,11.55
2019-05-03T17:13:21.469Z,11.22
2019-05-03T17:15:51.128Z,11.18
2019-05-03T17:18:20.457Z,11.53
2019-05-03T17:20:50.822Z,10.80
2019-05-03T17:23:20.155Z,11.57
2019-05-03T17:25:49.798Z,11.35
2019-05-03T17:28:19.470Z,11.88
2019-05-03T17:30:48.910Z,11.33
2019-05-03T17:33:18.291Z,11.57
2019-05-03T17:35:47.995Z,12.20
2019-05-03T17:38:17.562Z,11.30
2019-05-03T17:41:06.890Z,11.97
2019-05-03T17:43:45.236Z,11.78
2019-05-03T17:46:14.985Z,11.95
2019-05-03T17:48:45.279Z,11.60
2019-05-03T17:51:19.442Z,11.80
2019-05-03T17:53:56.163Z,11.63
2019-05-03T17:56:29.921Z,12.60
2019-05-03T17:59:00.917Z,12.23
2019-05-03T18:01:31.885Z,14.45
2019-05-03T18:04:09.734Z,12.70
2019-05-03T18:06:40.822Z,12.63
2019-05-03T18:09:20.676Z,12.43
2019-05-03T18:11:54.894Z,13.68
2019-05-03T18:14:25.096Z,15.25
2019-05-03T18:16:54.884Z,13.98
2019-05-03T18:19:24.470Z,14.13
2019-05-03T18:21:55.325Z,13.68
2019-05-03T18:24:24.874Z,15.43
2019-05-03T18:26:54.460Z,15.10
2019-05-03T18:29:25.241Z,14.68
2019-05-03T18:31:55.032Z,13.72
2019-05-03T18:34:25.032Z,15.35
2019-05-03T18:36:54.373Z,13.05
2019-05-03T18:39:25.242Z,12.20
2019-05-03T18:41:55.061Z,11.28
2019-05-03T18:44:34.748Z,11.10
2019-05-03T18:47:05.639Z,12.40
2019-05-03T18:49:35.370Z,11.80
2019-05-03T18:52:04.990Z,12.37
2019-05-03T18:54:35.042Z,12.55
2019-05-03T18:57:05.078Z,13.70
2019-05-03T18:59:34.620Z,14.75
2019-05-03T19:02:05.441Z,14.10
2019-05-03T19:04:39.005Z,15.50
2019-05-03T19:07:09.933Z,28.15
2019-05-03T19:09:40.873Z,15.48
2019-05-03T19:12:28.414Z,15.15
2019-05-03T19:14:57.896Z,14.75
2019-05-03T19:17:29.094Z,14.70
2019-05-03T19:20:00.469Z,15.15
2019-05-03T19:22:29.753Z,20.50
2019-05-03T19:24:59.077Z,17.40
2019-05-03T19:27:28.479Z,14.85
2019-05-03T19:29:57.781Z,14.78
2019-05-03T19:32:28.365Z,14.33
2019-05-03T19:34:58.194Z,15.05
2019-05-03T19:37:27.482Z,15.85
2019-05-03T19:39:57.144Z,14.98
2019-05-03T19:42:27.333Z,15.28
2019-05-03T19:44:56.765Z,16.75
2019-05-03T19:47:26.579Z,16.37
2019-05-03T19:49:56.021Z,15.40
2019-05-03T19:52:27.341Z,15.53
2019-05-03T19:54:56.594Z,16.00
2019-05-03T19:57:30.302Z,16.17
2019-05-03T19:59:59.675Z,17.05
2019-05-03T20:02:30.600Z,16.77
2019-05-03T20:05:16.527Z,16.12
2019-05-03T20:07:47.535Z,17.37
2019-05-03T20:10:18.178Z,15.78
2019-05-03T20:12:47.841Z,16.77
2019-05-03T20:15:17.389Z,16.35
2019-05-03T20:17:56.569Z,15.32
2019-05-03T20:20:17.625Z,15.38
2019-05-03T20:22:47.675Z,16.48
2019-05-03T20:25:17.275Z,15.78
2019-05-03T20:27:46.558Z,15.78
2019-05-03T20:30:16.134Z,16.23
2019-05-03T20:32:45.498Z,16.02
2019-05-03T20:35:19.203Z,15.83
2019-05-03T20:37:46.132Z,15.65
2019-05-03T20:40:15.529Z,17.60
2019-05-03T20:43:04.999Z,17.17
2019-05-03T20:45:36.190Z,15.90
2019-05-03T20:48:11.076Z,16.50
2019-05-03T20:50:40.429Z,16.17
2019-05-03T20:53:09.693Z,15.03
2019-05-03T20:55:39.050Z,16.57
2019-05-03T20:58:11.298Z,17.05
2019-05-03T21:00:39.601Z,17.30
2019-05-03T21:03:08.981Z,16.52
2019-05-03T21:05:38.345Z,17.90
2019-05-03T21:08:07.907Z,17.07
2019-05-03T21:10:37.301Z,16.45
2019-05-03T21:13:08.774Z,17.25
2019-05-03T21:15:39.678Z,17.00
2019-05-03T21:18:15.208Z,15.98
2019-05-03T21:20:46.281Z,15.55
2019-05-03T21:23:20.190Z,15.10
2019-05-03T21:26:12.069Z,15.70
2019-05-03T21:28:35.385Z,15.43
2019-05-03T21:31:05.658Z,15.65
2019-05-03T21:33:35.599Z,17.12
2019-05-03T21:36:04.985Z,15.23
2019-05-03T21:38:35.411Z,16.93
2019-05-03T21:41:05.399Z,16.00
2019-05-03T21:43:35.022Z,16.10
2019-05-03T21:46:07.515Z,17.02
2019-05-03T21:48:47.325Z,16.87
2019-05-03T21:51:16.991Z,17.48
2019-05-03T21:53:46.254Z,17.90
2019-05-03T21:56:15.538Z,17.50
2019-05-03T21:58:44.902Z,18.48
2019-05-03T22:01:15.495Z,18.57
2019-05-03T22:03:45.283Z,17.70
2019-05-03T22:06:16.874Z,17.02
2019-05-03T22:08:45.997Z,17.25
2019-05-03T22:11:15.266Z,17.57
2019-05-03T22:13:46.025Z,18.37
2019-05-03T22:16:17.352Z,18.27
2019-05-03T22:18:47.095Z,16.73
2019-05-03T22:21:30.100Z,17.20
2019-05-03T22:24:04.465Z,17.70
2019-05-03T22:26:50.841Z,17.30
2019-05-03T22:29:20.182Z,17.67
2019-05-03T22:31:49.435Z,16.62
2019-05-03T22:34:18.723Z,17.20
2019-05-03T22:36:48.088Z,16.87
2019-05-03T22:39:17.472Z,16.80
2019-05-03T22:41:46.729Z,16.95
2019-05-03T22:44:17.087Z,16.87
2019-05-03T22:46:46.629Z,17.27
2019-05-03T22:49:16.305Z,16.57
2019-05-03T22:51:45.581Z,16.60
2019-05-03T22:54:15.430Z,15.50
2019-05-03T22:56:45.897Z,15.60
2019-05-03T22:59:15.334Z,16.57
2019-05-03T23:01:45.772Z,15.35
2019-05-03T23:04:15.638Z,15.68
2019-05-03T23:06:47.102Z,16.60
2019-05-03T23:09:16.298Z,16.45
2019-05-03T23:11:45.685Z,16.05
2019-05-03T23:14:15.297Z,16.00
2019-05-03T23:16:45.056Z,15.58
2019-05-03T23:19:15.062Z,16.05
2019-05-03T23:21:48.989Z,12.88
2019-05-03T23:24:18.569Z,13.38
2019-05-03T23:26:48.129Z,11.73
2019-05-03T23:29:17.517Z,13.28
2019-05-03T23:31:46.882Z,14.28
2019-05-03T23:34:16.547Z,11.35
2019-05-03T23:36:46.363Z,12.90
2019-05-03T23:39:15.638Z,12.10
2019-05-03T23:41:44.898Z,11.08
2019-05-03T23:44:15.144Z,11.88
2019-05-03T23:46:49.858Z,11.40
2019-05-03T23:49:20.213Z,11.30
2019-05-03T23:51:55.070Z,12.65
2019-05-03T23:54:24.820Z,13.03
2019-05-03T23:56:54.755Z,14.60
2019-05-03T23:59:24.338Z,15.28
